Terminal Aerodrome Forecast
Issued by NWS

Home | Current Version | Previous Version | Graphics & Text | Print | Product List | Glossary On
Versions: 1 2 3 4 5 6 7 8 9 10 11 12 13 14 15
075
FTUS43 KICT 160530
TAFRSL
TAF
KRSL 160530Z 1606/1706 17007KT P6SM SCT250
     FM161300 16011KT P6SM FEW250
     FM161700 18019G27KT P6SM SCT250
     FM170100 16010KT P6SM SCT250=

USA.gov is the U.S. government's official web portal to all federal, state and local government web resources and services.